createdAt,value
2022-12-16T00:00:16.208Z,0.55
2022-12-16T00:05:22.180Z,0.57
2022-12-16T00:10:25.013Z,0.53
2022-12-16T00:15:27.925Z,0.57
2022-12-16T00:20:30.880Z,0.58
2022-12-16T00:25:33.788Z,0.58
2022-12-16T00:30:37.195Z,0.58
2022-12-16T00:35:44.487Z,0.56
2022-12-16T00:40:49.065Z,0.57
2022-12-16T00:45:52.260Z,0.58
2022-12-16T00:50:55.827Z,0.63
2022-12-16T00:56:11.166Z,0.65
2022-12-16T01:01:14.745Z,0.66
2022-12-16T01:06:18.742Z,0.69
2022-12-16T01:11:21.801Z,0.70
2022-12-16T01:16:24.769Z,0.73
2022-12-16T01:21:27.715Z,0.74
2022-12-16T01:26:31.905Z,0.76
2022-12-16T01:31:34.816Z,0.76
2022-12-16T01:36:37.784Z,0.77
2022-12-16T01:41:40.685Z,0.78
2022-12-16T01:46:51.216Z,0.81
2022-12-16T01:52:00.266Z,0.84
2022-12-16T01:57:09.870Z,0.85
2022-12-16T02:02:15.015Z,0.87
2022-12-16T02:07:18.119Z,0.87
2022-12-16T02:12:39.971Z,0.86
2022-12-16T02:18:03.756Z,0.89
2022-12-16T02:23:35.463Z,0.94
2022-12-16T02:29:19.267Z,0.95
2022-12-16T02:34:28.153Z,0.92
2022-12-16T02:39:39.121Z,0.96
2022-12-16T02:44:45.547Z,0.99
2022-12-16T02:49:54.344Z,1.01
2022-12-16T02:55:04.843Z,1.02
2022-12-16T03:00:13.249Z,1.06
2022-12-16T03:05:26.606Z,1.10
2022-12-16T03:10:37.071Z,1.12
2022-12-16T03:15:41.557Z,1.14
2022-12-16T03:21:02.908Z,1.17
2022-12-16T03:26:21.748Z,1.19
2022-12-16T03:31:38.879Z,1.19
2022-12-16T03:36:44.093Z,1.19
2022-12-16T03:41:54.509Z,1.21
2022-12-16T03:46:58.006Z,1.24
2022-12-16T03:52:01.104Z,1.26
2022-12-16T03:57:04.405Z,1.26
2022-12-16T04:02:07.512Z,1.29
2022-12-16T04:07:24.611Z,1.33
2022-12-16T04:12:46.092Z,1.37
2022-12-16T04:18:07.203Z,1.39
2022-12-16T04:23:30.644Z,1.41
2022-12-16T04:28:33.873Z,1.41
2022-12-16T04:33:56.096Z,1.47
2022-12-16T04:39:17.156Z,1.51
2022-12-16T04:44:38.362Z,1.54
2022-12-16T04:50:00.210Z,1.59
2022-12-16T04:55:22.508Z,1.61
2022-12-16T05:00:43.835Z,1.65
2022-12-16T05:06:05.489Z,1.68
2022-12-16T05:11:26.697Z,1.71
2022-12-16T05:16:47.916Z,1.75
2022-12-16T05:22:09.100Z,1.77
2022-12-16T05:27:30.405Z,1.79
2022-12-16T05:32:51.584Z,1.82
2022-12-16T05:38:13.891Z,1.85
2022-12-16T05:43:35.262Z,1.85
2022-12-16T05:48:56.603Z,1.88
2022-12-16T05:54:17.835Z,1.93
2022-12-16T05:59:39.268Z,1.97
2022-12-16T06:05:00.308Z,1.97
2022-12-16T06:10:22.443Z,2.00
2022-12-16T06:15:43.658Z,2.05
2022-12-16T06:21:05.287Z,2.08
2022-12-16T06:26:27.019Z,2.11
2022-12-16T06:31:48.393Z,2.12
2022-12-16T06:37:09.786Z,2.15
2022-12-16T06:42:31.852Z,2.18
2022-12-16T06:47:53.113Z,2.21
2022-12-16T06:53:14.384Z,2.24
2022-12-16T06:58:35.664Z,2.26
2022-12-16T07:03:56.996Z,2.28
2022-12-16T07:09:18.087Z,2.30
2022-12-16T07:14:39.162Z,2.32
2022-12-16T07:20:00.353Z,2.33
2022-12-16T07:25:22.123Z,2.36
2022-12-16T07:30:43.591Z,2.39
2022-12-16T07:36:04.784Z,2.44
2022-12-16T07:41:25.957Z,2.47
2022-12-16T07:46:47.073Z,2.51
2022-12-16T07:52:08.309Z,2.56
2022-12-16T07:57:29.814Z,2.60
2022-12-16T08:02:51.330Z,2.65
2022-12-16T08:08:12.761Z,2.67
2022-12-16T08:13:34.687Z,2.69
2022-12-16T08:18:56.135Z,2.72
2022-12-16T08:24:17.740Z,2.74
2022-12-16T08:29:46.130Z,2.72
2022-12-16T08:35:07.446Z,2.73
2022-12-16T08:40:37.344Z,2.71
2022-12-16T08:46:00.300Z,2.72
2022-12-16T08:51:24.786Z,2.73
2022-12-16T08:56:46.093Z,2.80
2022-12-16T09:02:07.503Z,2.87
2022-12-16T09:07:29.295Z,3.00
2022-12-16T09:12:50.490Z,3.10
2022-12-16T09:18:15.834Z,3.17
2022-12-16T09:23:37.181Z,3.23
2022-12-16T09:28:58.593Z,3.28
2022-12-16T09:34:20.255Z,3.31
2022-12-16T09:39:41.455Z,3.31
2022-12-16T09:46:20.531Z,3.36
2022-12-16T09:51:43.121Z,3.41
2022-12-16T09:57:05.611Z,3.43
2022-12-16T10:02:32.326Z,3.45
2022-12-16T10:08:02.236Z,3.47
2022-12-16T10:14:02.039Z,3.53
2022-12-16T10:19:32.539Z,3.58
2022-12-16T10:25:25.039Z,3.65
2022-12-16T10:30:48.607Z,3.68
2022-12-16T10:36:15.200Z,3.67
2022-12-16T10:41:37.003Z,3.68
2022-12-16T10:46:58.762Z,3.72
2022-12-16T10:52:20.995Z,3.74
2022-12-16T10:58:14.974Z,3.78
2022-12-16T11:03:41.575Z,3.76
2022-12-16T11:09:02.872Z,3.73
2022-12-16T11:15:05.404Z,3.71
2022-12-16T11:20:38.774Z,3.67
2022-12-16T11:26:00.067Z,3.63
2022-12-16T11:31:35.401Z,3.59
2022-12-16T11:37:00.131Z,3.53
2022-12-16T11:42:23.325Z,3.49
2022-12-16T11:47:56.720Z,3.46
2022-12-16T11:53:19.778Z,3.46
2022-12-16T11:59:06.541Z,3.47
2022-12-16T12:04:27.889Z,3.43
2022-12-16T12:09:55.900Z,3.39
2022-12-16T12:15:23.598Z,3.38
2022-12-16T12:21:41.214Z,3.36
2022-12-16T12:27:27.715Z,3.41
2022-12-16T12:33:25.832Z,3.46
2022-12-16T12:39:38.325Z,3.48
2022-12-16T12:45:25.949Z,3.49
2022-12-16T12:50:58.915Z,3.47
2022-12-16T12:56:45.554Z,3.53
2022-12-16T13:02:08.507Z,3.57
2022-12-16T13:07:30.687Z,3.59
2022-12-16T13:12:53.674Z,3.63
2022-12-16T13:18:18.400Z,3.67
2022-12-16T13:23:52.858Z,3.70
2022-12-16T13:29:45.426Z,3.75
2022-12-16T13:35:23.780Z,3.80
2022-12-16T13:40:45.736Z,3.84
2022-12-16T13:46:16.130Z,3.90
2022-12-16T13:52:19.978Z,3.88
2022-12-16T13:57:43.853Z,3.82
2022-12-16T14:03:09.520Z,3.77
2022-12-16T14:08:39.172Z,3.73
2022-12-16T14:14:39.253Z,3.72
2022-12-16T14:20:15.149Z,3.69
2022-12-16T14:25:41.943Z,3.67
2022-12-16T14:31:03.766Z,3.61
2022-12-16T14:36:44.716Z,3.57
2022-12-16T14:42:10.478Z,3.56
2022-12-16T14:47:38.888Z,3.53
2022-12-16T14:53:00.468Z,3.49
2022-12-16T14:58:52.784Z,3.46
2022-12-16T15:04:15.037Z,3.41
2022-12-16T15:10:03.197Z,3.31
2022-12-16T15:15:55.053Z,3.19
2022-12-16T15:21:18.872Z,3.11
2022-12-16T15:26:45.383Z,3.03
2022-12-16T15:32:07.054Z,2.99
2022-12-16T15:37:38.806Z,2.93
2022-12-16T15:43:00.459Z,2.85
2022-12-16T15:48:49.641Z,2.77
2022-12-16T15:54:22.661Z,2.72
2022-12-16T15:59:54.098Z,2.68
2022-12-16T16:05:15.447Z,2.63
2022-12-16T16:10:43.669Z,2.58
2022-12-16T16:16:06.031Z,2.50
2022-12-16T16:21:27.310Z,2.42
2022-12-16T16:26:49.072Z,2.36
2022-12-16T16:32:11.693Z,2.32
2022-12-16T16:37:37.580Z,2.32
2022-12-16T16:42:58.798Z,2.30
2022-12-16T16:48:51.187Z,2.28
2022-12-16T16:54:12.781Z,2.28
2022-12-16T16:59:34.035Z,2.23
2022-12-16T17:04:55.015Z,2.16
2022-12-16T17:10:16.104Z,2.09
2022-12-16T17:15:44.772Z,1.99
2022-12-16T17:21:06.533Z,1.91
2022-12-16T17:26:29.605Z,1.87
2022-12-16T17:31:50.924Z,1.83
2022-12-16T17:37:12.078Z,1.81
2022-12-16T17:42:33.331Z,1.78
2022-12-16T17:47:55.186Z,1.75
2022-12-16T17:53:17.944Z,1.75
2022-12-16T17:58:38.955Z,1.78
2022-12-16T18:04:00.267Z,1.78
2022-12-16T18:09:22.053Z,1.78
2022-12-16T18:14:43.183Z,1.81
2022-12-16T18:20:04.995Z,1.80
2022-12-16T18:25:26.171Z,1.82
2022-12-16T18:30:47.939Z,1.84
2022-12-16T18:36:09.077Z,1.85
2022-12-16T18:41:37.309Z,1.85
2022-12-16T18:46:58.465Z,1.87
2022-12-16T18:52:19.947Z,1.91
2022-12-16T18:57:41.142Z,1.92
2022-12-16T19:03:02.336Z,1.91
2022-12-16T19:08:24.208Z,1.90
2022-12-16T19:13:45.437Z,1.92
2022-12-16T19:19:06.683Z,1.87
2022-12-16T19:24:33.089Z,1.81
2022-12-16T19:29:54.350Z,1.77
2022-12-16T19:35:17.918Z,1.74
2022-12-16T19:40:39.234Z,1.71
2022-12-16T19:46:00.528Z,1.64
2022-12-16T19:51:22.810Z,1.57
2022-12-16T19:56:44.253Z,1.53
2022-12-16T20:02:05.533Z,1.49
2022-12-16T20:07:27.543Z,1.46
2022-12-16T20:12:48.859Z,1.39
2022-12-16T20:18:09.995Z,1.34
2022-12-16T20:23:31.229Z,1.31
2022-12-16T20:28:52.549Z,1.30
2022-12-16T20:34:17.988Z,1.28
2022-12-16T20:39:39.153Z,1.27
2022-12-16T20:45:00.478Z,1.26
2022-12-16T20:50:22.729Z,1.25
2022-12-16T20:55:43.908Z,1.22
2022-12-16T21:01:11.118Z,1.18
2022-12-16T21:06:32.397Z,1.13
2022-12-16T21:11:53.998Z,1.13
2022-12-16T21:17:17.667Z,1.12
2022-12-16T21:22:38.944Z,1.09
2022-12-16T21:28:00.217Z,0.98
2022-12-16T21:33:22.039Z,0.88
2022-12-16T21:38:50.734Z,0.82
2022-12-16T21:44:13.046Z,0.73
2022-12-16T21:49:34.228Z,0.65
2022-12-16T21:54:56.073Z,0.60
2022-12-16T22:00:17.439Z,0.52
2022-12-16T22:05:38.715Z,0.45
2022-12-16T22:11:01.062Z,0.39
2022-12-16T22:16:22.858Z,0.35
2022-12-16T22:21:44.480Z,0.31
2022-12-16T22:27:05.727Z,0.24
2022-12-16T22:32:27.545Z,0.18
2022-12-16T22:37:49.229Z,0.13
2022-12-16T22:43:10.559Z,0.10
2022-12-16T22:48:31.747Z,0.07
2022-12-16T22:53:52.963Z,0.05
2022-12-16T22:59:14.784Z,0.09
2022-12-16T23:04:36.064Z,0.07
2022-12-16T23:09:57.765Z,0.08
2022-12-16T23:15:19.481Z,0.05
2022-12-16T23:20:40.736Z,0.02
2022-12-16T23:26:02.489Z,0.01
2022-12-16T23:31:23.843Z,-0.04
2022-12-16T23:36:46.180Z,-0.04
2022-12-16T23:42:07.305Z,-0.09
2022-12-16T23:47:28.419Z,-0.12
2022-12-16T23:52:49.570Z,-0.18
2022-12-16T23:58:23.748Z,-0.22
